createdAt,value
2018-05-17T00:02:21.195Z,4.87
2018-05-17T00:04:48.686Z,4.27
2018-05-17T00:07:16.771Z,4.70
2018-05-17T00:09:44.269Z,4.70
2018-05-17T00:12:12.593Z,4.17
2018-05-17T00:14:40.086Z,4.43
2018-05-17T00:17:08.970Z,4.60
2018-05-17T00:19:37.021Z,4.10
2018-05-17T00:22:04.608Z,4.53
2018-05-17T00:24:32.094Z,4.57
2018-05-17T00:26:59.582Z,5.83
2018-05-17T00:29:27.093Z,4.70
2018-05-17T00:31:55.800Z,5.63
2018-05-17T00:34:23.294Z,4.77
2018-05-17T00:36:50.765Z,4.70
2018-05-17T00:39:18.281Z,4.43
2018-05-17T00:41:45.769Z,4.77
2018-05-17T00:44:13.839Z,4.60
2018-05-17T00:46:41.334Z,4.50
2018-05-17T00:49:10.201Z,5.23
2018-05-17T00:51:37.670Z,5.97
2018-05-17T00:54:05.172Z,4.97
2018-05-17T00:56:32.669Z,4.77
2018-05-17T00:59:00.153Z,4.83
2018-05-17T01:01:28.419Z,5.30
2018-05-17T01:03:55.897Z,4.73
2018-05-17T01:06:24.247Z,4.33
2018-05-17T01:08:51.777Z,5.77
2018-05-17T01:11:19.809Z,4.60
2018-05-17T01:13:47.309Z,5.13
2018-05-17T01:16:14.795Z,4.90
2018-05-17T01:18:42.293Z,5.63
2018-05-17T01:21:09.792Z,5.83
2018-05-17T01:23:37.338Z,5.03
2018-05-17T01:26:04.827Z,4.47
2018-05-17T01:28:33.313Z,5.20
2018-05-17T01:31:00.884Z,6.03
2018-05-17T01:33:30.576Z,5.93
2018-05-17T01:35:58.073Z,5.13
2018-05-17T01:38:26.320Z,6.07
2018-05-17T01:40:54.590Z,6.40
2018-05-17T01:43:22.857Z,5.73
2018-05-17T01:45:50.341Z,5.53
2018-05-17T01:48:17.868Z,4.50
2018-05-17T01:50:46.095Z,6.07
2018-05-17T01:53:13.592Z,5.37
2018-05-17T01:55:41.089Z,5.27
2018-05-17T01:58:09.334Z,5.77
2018-05-17T02:00:36.826Z,5.30
2018-05-17T02:03:05.159Z,7.20
2018-05-17T02:05:32.753Z,6.57
2018-05-17T02:08:00.997Z,5.80
2018-05-17T02:10:28.498Z,6.77
2018-05-17T02:12:56.780Z,5.40
2018-05-17T02:15:25.140Z,5.03
2018-05-17T02:17:54.812Z,5.20
2018-05-17T02:20:22.284Z,6.40
2018-05-17T02:22:49.823Z,5.27
2018-05-17T02:25:18.135Z,5.60
2018-05-17T02:27:45.647Z,6.40
2018-05-17T02:30:13.625Z,6.10
2018-05-17T02:32:41.603Z,5.90
2018-05-17T02:35:09.087Z,6.03
2018-05-17T02:37:36.562Z,6.27
2018-05-17T02:40:04.839Z,7.23
2018-05-17T02:42:33.117Z,6.37
2018-05-17T02:45:01.391Z,6.93
2018-05-17T02:47:28.879Z,6.10
2018-05-17T02:49:56.391Z,6.20
2018-05-17T02:52:24.646Z,6.87
2018-05-17T02:54:52.145Z,6.10
2018-05-17T02:57:20.406Z,6.20
2018-05-17T02:59:48.675Z,6.53
2018-05-17T03:02:16.952Z,6.53
2018-05-17T03:04:45.274Z,4.87
2018-05-17T03:07:13.629Z,5.47
2018-05-17T03:09:41.186Z,5.07
2018-05-17T03:12:10.255Z,4.97
2018-05-17T03:14:38.163Z,5.67
2018-05-17T03:17:05.666Z,5.83
2018-05-17T03:19:33.149Z,6.37
2018-05-17T03:22:01.414Z,6.30
2018-05-17T03:24:28.894Z,5.90
2018-05-17T03:26:57.639Z,6.37
2018-05-17T03:29:25.136Z,5.30
2018-05-17T03:31:53.468Z,6.33
2018-05-17T03:34:21.901Z,5.87
2018-05-17T03:36:50.600Z,5.77
2018-05-17T03:39:18.093Z,5.57
2018-05-17T03:41:45.593Z,5.50
2018-05-17T03:44:13.161Z,6.70
2018-05-17T03:46:41.417Z,5.63
2018-05-17T03:49:09.676Z,7.57
2018-05-17T03:51:37.165Z,7.07
2018-05-17T03:54:05.410Z,6.83
2018-05-17T03:56:32.966Z,7.33
2018-05-17T03:59:00.541Z,7.17
2018-05-17T04:01:40.425Z,7.43
2018-05-17T04:04:19.720Z,8.07
2018-05-17T04:06:47.298Z,7.37
2018-05-17T04:09:15.547Z,7.00
2018-05-17T04:11:43.052Z,7.43
2018-05-17T04:14:10.540Z,7.53
2018-05-17T04:16:38.817Z,8.27
2018-05-17T04:19:06.298Z,7.17
2018-05-17T04:21:33.807Z,6.37
2018-05-17T04:24:01.287Z,6.83
2018-05-17T04:26:29.267Z,6.70
2018-05-17T04:28:56.774Z,7.80
2018-05-17T04:31:24.255Z,7.53
2018-05-17T04:33:51.762Z,7.23
2018-05-17T04:36:19.248Z,8.50
2018-05-17T04:38:47.452Z,8.10
2018-05-17T04:41:14.921Z,9.20
2018-05-17T04:43:42.438Z,8.03
2018-05-17T04:46:10.654Z,8.30
2018-05-17T04:48:38.144Z,7.90
2018-05-17T04:51:06.381Z,7.93
2018-05-17T04:53:33.868Z,7.53
2018-05-17T04:56:01.405Z,8.43
2018-05-17T04:58:28.918Z,7.77
2018-05-17T05:00:57.287Z,8.63
2018-05-17T05:03:26.150Z,7.73
2018-05-17T05:05:53.638Z,7.90
2018-05-17T05:08:21.902Z,7.67
2018-05-17T05:10:50.688Z,8.03
2018-05-17T05:13:18.177Z,8.07
2018-05-17T05:15:45.669Z,8.43
2018-05-17T05:18:13.172Z,8.20
2018-05-17T05:20:41.472Z,8.43
2018-05-17T05:23:08.966Z,8.07
2018-05-17T05:25:36.443Z,9.00
2018-05-17T05:28:04.648Z,11.33
2018-05-17T05:30:32.166Z,10.37
2018-05-17T05:32:59.657Z,8.80
2018-05-17T05:35:28.408Z,10.13
2018-05-17T05:37:56.766Z,9.37
2018-05-17T05:40:24.272Z,10.13
2018-05-17T05:42:52.573Z,9.40
2018-05-17T05:45:20.099Z,11.57
2018-05-17T05:47:47.628Z,8.70
2018-05-17T05:50:15.603Z,9.27
2018-05-17T05:52:43.094Z,9.30
2018-05-17T05:55:11.377Z,9.30
2018-05-17T05:57:39.698Z,9.20
2018-05-17T06:00:07.204Z,8.87
2018-05-17T06:02:34.761Z,9.57
2018-05-17T06:05:03.183Z,8.27
2018-05-17T06:07:31.396Z,8.20
2018-05-17T06:09:58.944Z,8.70
2018-05-17T06:12:26.477Z,8.07
2018-05-17T06:14:53.972Z,8.47
2018-05-17T06:17:21.575Z,7.27
2018-05-17T06:19:48.966Z,7.67
2018-05-17T06:22:16.497Z,7.27
2018-05-17T06:24:43.990Z,6.77
2018-05-17T06:27:12.321Z,7.17
2018-05-17T06:29:39.858Z,7.77
2018-05-17T06:32:08.195Z,6.13
2018-05-17T06:34:35.714Z,6.50
2018-05-17T06:37:03.189Z,6.87
2018-05-17T06:39:30.713Z,6.37
2018-05-17T06:41:58.989Z,6.13
2018-05-17T06:44:27.261Z,6.40
2018-05-17T06:46:55.505Z,7.00
2018-05-17T06:49:23.031Z,5.97
2018-05-17T06:51:51.326Z,6.53
2018-05-17T06:54:18.804Z,5.77
2018-05-17T06:56:47.129Z,6.40
2018-05-17T06:59:14.645Z,6.27
2018-05-17T07:01:42.165Z,7.20
2018-05-17T07:04:09.666Z,6.00
2018-05-17T07:06:37.175Z,6.33
2018-05-17T07:09:05.828Z,5.87
2018-05-17T07:11:34.141Z,6.93
2018-05-17T07:14:01.752Z,5.73
2018-05-17T07:16:29.283Z,6.50
2018-05-17T07:18:57.508Z,6.27
2018-05-17T07:21:25.789Z,7.13
2018-05-17T07:23:53.282Z,5.77
2018-05-17T07:26:20.798Z,6.03
2018-05-17T07:28:48.905Z,5.97
2018-05-17T07:31:16.889Z,6.00
2018-05-17T07:33:44.394Z,5.60
2018-05-17T07:36:12.767Z,5.73
2018-05-17T07:38:41.114Z,6.43
2018-05-17T07:41:08.707Z,5.97
2018-05-17T07:43:36.996Z,6.57
2018-05-17T07:46:05.754Z,6.50
2018-05-17T07:48:33.339Z,4.87
2018-05-17T07:51:01.615Z,5.53
2018-05-17T07:53:29.129Z,6.47
2018-05-17T07:55:56.633Z,6.23
2018-05-17T07:58:24.919Z,6.00
2018-05-17T08:00:52.415Z,5.47
2018-05-17T08:03:19.927Z,5.37
2018-05-17T08:05:47.448Z,5.37
2018-05-17T08:08:14.944Z,5.70
2018-05-17T08:10:42.909Z,6.13
2018-05-17T08:13:10.493Z,5.80
2018-05-17T08:15:37.991Z,6.30
2018-05-17T08:18:05.483Z,5.90
2018-05-17T08:20:33.000Z,5.40
2018-05-17T08:23:00.509Z,6.03
2018-05-17T08:25:28.042Z,5.27
2018-05-17T08:27:56.313Z,4.90
2018-05-17T08:30:23.842Z,5.50
2018-05-17T08:32:51.359Z,4.73
2018-05-17T08:35:19.457Z,5.80
2018-05-17T08:37:47.656Z,6.23
2018-05-17T08:40:15.156Z,4.80
2018-05-17T08:42:43.448Z,5.27
2018-05-17T08:45:11.409Z,5.10
2018-05-17T08:47:43.301Z,6.80
2018-05-17T08:50:10.899Z,5.47
2018-05-17T08:52:38.578Z,5.43
2018-05-17T08:55:08.030Z,5.03
2018-05-17T08:57:35.557Z,5.30
2018-05-17T09:00:03.231Z,5.13
2018-05-17T09:02:30.903Z,5.67
2018-05-17T09:04:58.496Z,4.93
2018-05-17T09:07:26.061Z,5.03
2018-05-17T09:09:53.641Z,6.07
2018-05-17T09:12:21.918Z,5.40
2018-05-17T09:14:50.208Z,6.03
2018-05-17T09:17:17.709Z,6.07
2018-05-17T09:19:45.220Z,5.53
2018-05-17T09:22:14.059Z,6.27
2018-05-17T09:24:41.559Z,5.97
2018-05-17T09:27:10.832Z,5.10
2018-05-17T09:29:38.332Z,6.07
2018-05-17T09:32:06.790Z,5.77
2018-05-17T09:34:35.932Z,6.63
2018-05-17T09:37:03.441Z,5.57
2018-05-17T09:39:31.695Z,6.13
2018-05-17T09:41:59.192Z,6.57
2018-05-17T09:44:26.695Z,5.97
2018-05-17T09:46:54.225Z,6.63
2018-05-17T09:49:21.712Z,5.53
2018-05-17T09:51:49.218Z,5.70
2018-05-17T09:54:17.473Z,5.43
2018-05-17T09:56:44.990Z,5.57
2018-05-17T09:59:12.495Z,5.43
2018-05-17T10:01:40.739Z,5.53
2018-05-17T10:04:08.260Z,5.57
2018-05-17T10:06:35.760Z,5.90
2018-05-17T10:09:03.966Z,5.27
2018-05-17T10:11:32.827Z,6.30
2018-05-17T10:14:00.351Z,5.80
2018-05-17T10:16:27.836Z,6.30
2018-05-17T10:18:55.451Z,5.83
2018-05-17T10:21:22.949Z,6.33
2018-05-17T10:23:50.462Z,5.97
2018-05-17T10:26:17.964Z,6.53
2018-05-17T10:28:46.390Z,6.37
2018-05-17T10:31:14.653Z,5.57
2018-05-17T10:33:42.909Z,6.17
2018-05-17T10:36:10.398Z,5.97
2018-05-17T10:38:38.700Z,6.20
2018-05-17T10:41:07.102Z,5.87
2018-05-17T10:43:34.618Z,5.93
2018-05-17T10:46:02.913Z,6.50
2018-05-17T10:48:30.420Z,6.27
2018-05-17T10:50:57.965Z,6.43
2018-05-17T10:53:25.492Z,6.20
2018-05-17T10:55:53.764Z,6.13
2018-05-17T10:58:21.272Z,5.87
2018-05-17T11:00:48.761Z,6.03
2018-05-17T11:03:17.030Z,5.90
2018-05-17T11:05:45.782Z,6.07
2018-05-17T11:08:13.348Z,5.60
2018-05-17T11:10:40.862Z,5.77
2018-05-17T11:13:08.485Z,5.57
2018-05-17T11:15:36.037Z,6.20
2018-05-17T11:18:03.608Z,6.40
2018-05-17T11:20:32.848Z,6.27
2018-05-17T11:23:00.788Z,6.47
2018-05-17T11:25:29.062Z,5.53
2018-05-17T11:27:57.804Z,5.87
2018-05-17T11:30:25.313Z,5.47
2018-05-17T11:32:52.807Z,6.90
2018-05-17T11:35:20.319Z,6.47
2018-05-17T11:37:49.165Z,6.00
2018-05-17T11:40:16.667Z,6.17
2018-05-17T11:42:44.921Z,6.17
2018-05-17T11:45:12.592Z,7.00
2018-05-17T11:47:40.665Z,5.50
2018-05-17T11:50:08.370Z,5.90
2018-05-17T11:52:39.635Z,5.93
2018-05-17T11:55:08.003Z,6.60
2018-05-17T11:57:36.439Z,6.40
2018-05-17T12:00:05.332Z,6.40
2018-05-17T12:02:35.444Z,6.30
2018-05-17T12:05:02.929Z,5.93
2018-05-17T12:07:30.489Z,5.87
2018-05-17T12:09:57.944Z,6.50
2018-05-17T12:12:26.281Z,6.13
2018-05-17T12:14:53.777Z,6.17
2018-05-17T12:17:21.274Z,5.70
2018-05-17T12:19:48.759Z,5.80
2018-05-17T12:22:17.711Z,5.87
2018-05-17T12:24:45.793Z,6.00
2018-05-17T12:27:14.013Z,5.93
2018-05-17T12:29:42.286Z,6.13
2018-05-17T12:32:10.891Z,5.93
2018-05-17T12:34:38.421Z,6.37
2018-05-17T12:37:06.102Z,5.83
2018-05-17T12:39:34.153Z,6.33
2018-05-17T12:42:01.674Z,5.90
2018-05-17T12:44:29.161Z,6.70
2018-05-17T12:46:56.667Z,7.07
2018-05-17T12:49:24.145Z,7.10
2018-05-17T12:51:51.699Z,6.23
2018-05-17T12:54:19.202Z,6.87
2018-05-17T12:56:48.066Z,6.23
2018-05-17T12:59:15.597Z,6.63
2018-05-17T13:01:43.106Z,6.20
2018-05-17T13:04:10.620Z,6.17
2018-05-17T13:06:38.130Z,6.27
2018-05-17T13:09:07.294Z,5.50
2018-05-17T13:11:34.802Z,5.80
2018-05-17T13:14:02.303Z,5.87
2018-05-17T13:16:29.823Z,6.30
2018-05-17T13:18:57.340Z,5.90
2018-05-17T13:21:24.858Z,5.70
2018-05-17T13:23:52.385Z,6.07
2018-05-17T13:26:20.657Z,6.47
2018-05-17T13:28:48.961Z,6.20
2018-05-17T13:31:16.481Z,6.07
2018-05-17T13:33:43.982Z,5.80
2018-05-17T13:36:11.476Z,5.93
2018-05-17T13:38:39.061Z,5.90
2018-05-17T13:41:07.334Z,6.17
2018-05-17T13:43:34.803Z,6.07
2018-05-17T13:46:03.163Z,6.80
2018-05-17T13:48:30.629Z,6.10
2018-05-17T13:50:59.598Z,5.33
2018-05-17T13:53:27.071Z,6.47
2018-05-17T13:55:54.564Z,6.10
2018-05-17T13:58:22.095Z,5.63
2018-05-17T14:00:50.357Z,5.60
2018-05-17T14:03:18.587Z,5.83
2018-05-17T14:05:46.069Z,5.50
2018-05-17T14:08:13.573Z,6.37
2018-05-17T14:10:41.917Z,6.53
2018-05-17T14:13:09.465Z,6.23
2018-05-17T14:15:37.126Z,6.30
2018-05-17T14:18:05.316Z,6.00
2018-05-17T14:20:32.833Z,6.27
2018-05-17T14:23:00.933Z,6.00
2018-05-17T14:25:28.423Z,5.67
2018-05-17T14:27:56.699Z,5.20
2018-05-17T14:30:25.075Z,4.93
2018-05-17T14:32:52.545Z,6.20
2018-05-17T14:35:20.819Z,5.63
2018-05-17T14:37:50.119Z,5.87
2018-05-17T14:40:19.099Z,6.10
2018-05-17T14:42:46.677Z,5.97
2018-05-17T14:45:14.941Z,5.87
2018-05-17T14:47:43.714Z,5.17
2018-05-17T14:50:11.243Z,6.33
2018-05-17T14:52:38.777Z,6.47
2018-05-17T14:55:06.306Z,5.83
2018-05-17T14:57:33.800Z,6.60
2018-05-17T15:00:01.315Z,6.00
2018-05-17T15:02:29.579Z,6.07
2018-05-17T15:04:57.074Z,5.80
2018-05-17T15:07:25.426Z,5.90
2018-05-17T15:09:53.728Z,6.20
2018-05-17T15:12:21.981Z,6.43
2018-05-17T15:14:50.302Z,6.30
2018-05-17T15:17:18.547Z,6.13
2018-05-17T15:19:46.804Z,6.30
2018-05-17T15:22:14.904Z,6.67
2018-05-17T15:24:43.046Z,6.57
2018-05-17T15:27:10.511Z,6.53
2018-05-17T15:29:38.859Z,6.27
2018-05-17T15:32:06.262Z,6.00
2018-05-17T15:34:33.773Z,6.60
2018-05-17T15:37:01.284Z,6.27
2018-05-17T15:39:28.763Z,6.33
2018-05-17T15:41:56.302Z,5.70
2018-05-17T15:44:24.421Z,6.63
2018-05-17T15:46:51.910Z,6.57
2018-05-17T15:49:20.193Z,7.20
2018-05-17T15:51:49.136Z,6.13
2018-05-17T15:54:16.648Z,6.30
2018-05-17T15:56:44.899Z,6.40
2018-05-17T15:59:12.408Z,6.60
2018-05-17T16:01:39.907Z,6.43
2018-05-17T16:04:07.403Z,5.60
2018-05-17T16:06:35.038Z,6.67
2018-05-17T16:09:02.539Z,5.43
2018-05-17T16:11:30.780Z,6.83
2018-05-17T16:13:59.025Z,5.67
2018-05-17T16:16:26.505Z,6.27
2018-05-17T16:18:54.020Z,6.27
2018-05-17T16:21:21.506Z,6.83
2018-05-17T16:23:49.020Z,5.97
2018-05-17T16:26:16.531Z,6.80
2018-05-17T16:28:44.051Z,6.43
2018-05-17T16:31:11.570Z,6.33
2018-05-17T16:33:40.516Z,6.20
2018-05-17T16:36:08.023Z,6.50
2018-05-17T16:38:36.277Z,5.70
2018-05-17T16:41:04.693Z,6.33
2018-05-17T16:43:32.215Z,5.97
2018-05-17T16:45:59.759Z,6.57
2018-05-17T16:48:27.329Z,5.70
2018-05-17T16:50:55.510Z,6.47
2018-05-17T16:53:23.837Z,6.67
2018-05-17T16:55:51.340Z,6.40
2018-05-17T16:58:18.837Z,5.97
2018-05-17T17:00:46.404Z,6.00
2018-05-17T17:03:13.898Z,5.73
2018-05-17T17:05:41.446Z,6.83
2018-05-17T17:08:09.049Z,6.60
2018-05-17T17:10:38.016Z,6.47
2018-05-17T17:13:05.521Z,5.77
2018-05-17T17:15:33.006Z,6.17
2018-05-17T17:18:00.482Z,6.40
2018-05-17T17:20:28.738Z,6.40
2018-05-17T17:22:57.057Z,6.10
2018-05-17T17:25:24.566Z,5.87
2018-05-17T17:27:52.061Z,6.20
2018-05-17T17:30:19.545Z,5.70
2018-05-17T17:32:47.819Z,5.67
2018-05-17T17:35:16.986Z,6.17
2018-05-17T17:37:44.552Z,5.60
2018-05-17T17:40:12.077Z,5.60
2018-05-17T17:42:39.578Z,6.47
2018-05-17T17:45:07.128Z,6.73
2018-05-17T17:47:34.642Z,6.30
2018-05-17T17:50:02.155Z,6.00
2018-05-17T17:52:29.659Z,6.43
2018-05-17T17:54:57.134Z,6.77
2018-05-17T17:57:24.665Z,5.97
2018-05-17T17:59:52.169Z,6.83
2018-05-17T18:02:19.773Z,6.13
2018-05-17T18:04:47.715Z,5.97
2018-05-17T18:07:16.460Z,7.40
2018-05-17T18:09:43.951Z,7.27
2018-05-17T18:12:11.446Z,6.60
2018-05-17T18:14:38.953Z,6.77
2018-05-17T18:17:06.452Z,6.67
2018-05-17T18:19:33.977Z,6.33
2018-05-17T18:22:01.480Z,6.40
2018-05-17T18:24:29.000Z,6.73
2018-05-17T18:26:56.473Z,6.10
2018-05-17T18:29:24.757Z,6.37
2018-05-17T18:31:53.083Z,7.00
2018-05-17T18:34:20.604Z,6.33
2018-05-17T18:36:48.125Z,6.70
2018-05-17T18:39:16.477Z,6.77
2018-05-17T18:41:43.993Z,7.50
2018-05-17T18:44:12.249Z,7.20
2018-05-17T18:46:39.751Z,6.53
2018-05-17T18:49:07.269Z,6.60
2018-05-17T18:51:35.612Z,6.60
2018-05-17T18:54:03.120Z,6.50
2018-05-17T18:56:31.408Z,6.37
2018-05-17T18:58:59.516Z,6.60
2018-05-17T19:01:27.038Z,6.57
2018-05-17T19:03:55.333Z,6.87
2018-05-17T19:06:22.831Z,6.70
2018-05-17T19:08:50.456Z,6.20
2018-05-17T19:11:17.857Z,7.10
2018-05-17T19:13:45.354Z,6.67
2018-05-17T19:16:12.849Z,6.27
2018-05-17T19:18:40.364Z,6.83
2018-05-17T19:21:07.881Z,5.93
2018-05-17T19:23:35.384Z,7.30
2018-05-17T19:26:02.893Z,7.23
2018-05-17T19:28:30.401Z,7.40
2018-05-17T19:30:57.925Z,6.27
2018-05-17T19:33:26.979Z,6.70
2018-05-17T19:35:54.581Z,6.70
2018-05-17T19:38:22.846Z,6.53
2018-05-17T19:40:50.359Z,6.87
2018-05-17T19:43:17.911Z,7.43
2018-05-17T19:45:45.436Z,8.13
2018-05-17T19:48:13.745Z,7.07
2018-05-17T19:50:42.041Z,7.30
2018-05-17T19:53:09.538Z,6.90
2018-05-17T19:55:37.825Z,6.47
2018-05-17T19:58:06.113Z,6.03
2018-05-17T20:00:33.641Z,6.60
2018-05-17T20:03:01.134Z,6.90
2018-05-17T20:05:29.388Z,6.23
2018-05-17T20:07:57.662Z,6.47
2018-05-17T20:10:25.992Z,6.23
2018-05-17T20:12:53.491Z,6.27
2018-05-17T20:15:21.027Z,6.13
2018-05-17T20:17:48.531Z,6.73
2018-05-17T20:20:16.797Z,7.20
2018-05-17T20:22:45.065Z,7.20
2018-05-17T20:25:13.344Z,6.97
2018-05-17T20:27:41.609Z,6.70
2018-05-17T20:30:09.121Z,7.73
2018-05-17T20:32:36.630Z,7.60
2018-05-17T20:35:04.159Z,6.90
2018-05-17T20:37:31.662Z,7.37
2018-05-17T20:39:59.931Z,7.53
2018-05-17T20:42:28.310Z,6.63
2018-05-17T20:44:55.744Z,6.20
2018-05-17T20:47:23.284Z,7.90
2018-05-17T20:49:50.765Z,7.13
2018-05-17T20:52:18.260Z,7.40
2018-05-17T20:54:45.747Z,7.67
2018-05-17T20:57:13.237Z,6.47
2018-05-17T20:59:41.190Z,6.83
2018-05-17T21:02:08.715Z,7.23
2018-05-17T21:04:36.196Z,8.43
2018-05-17T21:07:03.704Z,7.63
2018-05-17T21:09:31.998Z,6.83
2018-05-17T21:11:59.510Z,6.87
2018-05-17T21:14:27.013Z,7.10
2018-05-17T21:16:54.496Z,6.10
2018-05-17T21:19:22.008Z,7.07
2018-05-17T21:21:50.260Z,7.17
2018-05-17T21:24:17.780Z,7.23
2018-05-17T21:26:45.886Z,7.17
2018-05-17T21:29:14.083Z,7.00
2018-05-17T21:31:42.368Z,7.23
2018-05-17T21:34:10.637Z,6.70
2018-05-17T21:36:38.893Z,6.50
2018-05-17T21:39:06.371Z,6.67
2018-05-17T21:41:34.661Z,6.60
2018-05-17T21:44:03.408Z,6.87
2018-05-17T21:46:30.890Z,6.73
2018-05-17T21:48:59.182Z,6.50
2018-05-17T21:51:27.525Z,6.87
2018-05-17T21:53:55.057Z,7.50
2018-05-17T21:56:22.648Z,6.80
2018-05-17T21:58:50.290Z,6.80
2018-05-17T22:01:17.759Z,7.37
2018-05-17T22:03:45.266Z,6.67
2018-05-17T22:06:12.773Z,6.90
2018-05-17T22:08:40.269Z,6.77
2018-05-17T22:11:07.760Z,6.30
2018-05-17T22:13:35.271Z,6.20
2018-05-17T22:16:03.516Z,6.40
2018-05-17T22:18:31.033Z,6.43
2018-05-17T22:20:58.533Z,6.67
2018-05-17T22:23:26.010Z,6.23
2018-05-17T22:25:54.299Z,7.30
2018-05-17T22:28:22.558Z,6.63
2018-05-17T22:30:50.868Z,6.53
2018-05-17T22:33:18.371Z,6.70
2018-05-17T22:35:46.518Z,5.93
2018-05-17T22:38:13.999Z,7.07
2018-05-17T22:40:41.492Z,7.37
2018-05-17T22:43:09.748Z,6.50
2018-05-17T22:45:37.252Z,7.30
2018-05-17T22:48:05.590Z,6.43
2018-05-17T22:50:33.079Z,6.67
2018-05-17T22:53:01.409Z,6.37
2018-05-17T22:55:28.886Z,6.57
2018-05-17T22:58:08.159Z,7.40
2018-05-17T23:00:35.662Z,7.13
2018-05-17T23:03:03.180Z,6.40
2018-05-17T23:05:30.685Z,6.10
2018-05-17T23:07:58.159Z,7.07
2018-05-17T23:10:26.457Z,6.40
2018-05-17T23:12:53.942Z,5.90
2018-05-17T23:15:21.435Z,6.37
2018-05-17T23:17:48.948Z,6.20
2018-05-17T23:20:16.448Z,5.77
2018-05-17T23:22:43.927Z,5.93
2018-05-17T23:25:12.797Z,5.73
2018-05-17T23:27:40.896Z,6.43
2018-05-17T23:30:10.068Z,6.90
2018-05-17T23:32:37.690Z,6.30
2018-05-17T23:35:05.227Z,6.10
2018-05-17T23:37:32.786Z,6.50
2018-05-17T23:40:23.873Z,6.20
2018-05-17T23:42:52.146Z,6.90
2018-05-17T23:45:20.417Z,6.47
2018-05-17T23:47:48.679Z,6.47
2018-05-17T23:50:16.182Z,8.07
2018-05-17T23:52:44.117Z,6.00
2018-05-17T23:55:11.602Z,6.23
2018-05-17T23:57:39.095Z,6.60
